createdAt,value
2022-08-11T00:00:09.903Z,21.81
2022-08-11T00:02:41.444Z,21.84
2022-08-11T00:05:13.466Z,21.67
2022-08-11T00:07:46.850Z,21.64
2022-08-11T00:10:17.896Z,21.66
2022-08-11T00:12:53.627Z,21.59
2022-08-11T00:15:22.693Z,21.69
2022-08-11T00:17:57.315Z,21.46
2022-08-11T00:20:32.233Z,21.31
2022-08-11T00:23:06.417Z,21.45
2022-08-11T00:25:39.511Z,21.46
2022-08-11T00:28:25.089Z,21.43
2022-08-11T00:30:56.397Z,21.44
2022-08-11T00:33:41.385Z,21.46
2022-08-11T00:36:16.290Z,21.35
2022-08-11T00:38:46.402Z,21.26
2022-08-11T00:41:29.193Z,21.31
2022-08-11T00:44:15.890Z,21.39
2022-08-11T00:46:52.198Z,21.34
2022-08-11T00:49:31.068Z,21.41
2022-08-11T00:52:14.401Z,21.41
2022-08-11T00:55:16.838Z,21.40
2022-08-11T00:58:21.884Z,21.19
2022-08-11T01:01:10.507Z,21.16
2022-08-11T01:04:00.753Z,21.31
2022-08-11T01:07:02.020Z,21.21
2022-08-11T01:09:50.701Z,21.12
2022-08-11T01:12:45.734Z,21.10
2022-08-11T01:16:00.462Z,21.19
2022-08-11T01:18:57.952Z,21.01
2022-08-11T01:22:12.319Z,21.09
2022-08-11T01:25:12.851Z,21.07
2022-08-11T01:28:29.380Z,21.07
2022-08-11T01:31:31.177Z,21.01
2022-08-11T01:34:35.428Z,21.02
2022-08-11T01:37:31.038Z,20.97
2022-08-11T01:40:37.829Z,20.91
2022-08-11T01:43:51.414Z,20.77
2022-08-11T01:46:27.624Z,20.88
2022-08-11T01:50:06.552Z,20.88
2022-08-11T01:52:09.521Z,20.68
2022-08-11T01:54:45.107Z,20.60
2022-08-11T01:57:22.602Z,20.72
2022-08-11T01:59:55.664Z,20.74
2022-08-11T02:02:47.522Z,20.58
2022-08-11T02:05:48.139Z,20.69
2022-08-11T02:08:33.629Z,20.71
2022-08-11T02:11:35.602Z,20.73
2022-08-11T02:14:16.028Z,20.72
2022-08-11T02:16:57.474Z,20.56
2022-08-11T02:19:52.204Z,20.54
2022-08-11T02:22:51.010Z,20.58
2022-08-11T02:25:29.460Z,20.53
2022-08-11T02:28:03.589Z,20.38
2022-08-11T02:30:38.138Z,20.50
2022-08-11T02:33:25.335Z,20.47
2022-08-11T02:36:04.722Z,20.42
2022-08-11T02:38:43.417Z,20.40
2022-08-11T02:41:34.845Z,20.40
2022-08-11T02:44:22.423Z,20.26
2022-08-11T02:47:02.775Z,20.13
2022-08-11T02:50:02.620Z,20.09
2022-08-11T02:52:45.341Z,20.07
2022-08-11T02:55:47.986Z,20.07
2022-08-11T02:58:16.189Z,20.17
2022-08-11T03:00:55.001Z,20.10
2022-08-11T03:03:31.023Z,19.97
2022-08-11T03:06:15.598Z,19.96
2022-08-11T03:08:54.153Z,19.98
2022-08-11T03:11:57.310Z,19.93
2022-08-11T03:14:48.403Z,19.86
2022-08-11T03:17:32.034Z,19.70
2022-08-11T03:20:16.310Z,19.86
2022-08-11T03:22:53.600Z,19.73
2022-08-11T03:25:31.563Z,19.76
2022-08-11T03:28:09.452Z,19.83
2022-08-11T03:30:47.774Z,19.88
2022-08-11T03:33:43.952Z,19.95
2022-08-11T03:36:21.245Z,19.90
2022-08-11T03:39:02.146Z,19.91
2022-08-11T03:42:01.282Z,19.74
2022-08-11T03:45:00.988Z,19.76
2022-08-11T03:48:01.527Z,19.78
2022-08-11T03:50:55.395Z,19.78
2022-08-11T03:53:40.825Z,19.65
2022-08-11T03:56:38.079Z,19.66
2022-08-11T03:59:35.789Z,19.71
2022-08-11T04:02:42.499Z,19.51
2022-08-11T04:05:40.693Z,19.35
2022-08-11T04:08:38.576Z,19.26
2022-08-11T04:11:35.967Z,19.14
2022-08-11T04:15:01.587Z,19.17
2022-08-11T04:18:06.300Z,19.25
2022-08-11T04:20:55.513Z,19.30
2022-08-11T04:24:36.386Z,19.30
2022-08-11T04:27:13.234Z,19.33
2022-08-11T04:30:03.824Z,19.53
2022-08-11T04:32:54.836Z,20.06
2022-08-11T04:35:35.798Z,20.06
2022-08-11T04:38:45.851Z,20.11
2022-08-11T04:41:34.121Z,20.13
2022-08-11T04:44:44.254Z,20.13
2022-08-11T04:47:59.756Z,20.19
2022-08-11T04:51:08.652Z,20.38
2022-08-11T04:54:15.110Z,20.56
2022-08-11T04:57:03.319Z,20.59
2022-08-11T05:00:19.995Z,20.66
2022-08-11T05:03:18.444Z,20.75
2022-08-11T05:06:21.738Z,20.82
2022-08-11T05:09:13.631Z,20.85
2022-08-11T05:12:07.897Z,20.94
2022-08-11T05:14:57.391Z,21.03
2022-08-11T05:17:53.104Z,21.10
2022-08-11T05:20:40.415Z,21.09
2022-08-11T05:23:28.753Z,21.24
2022-08-11T05:26:46.455Z,21.29
2022-08-11T05:29:45.209Z,21.49
2022-08-11T05:32:34.384Z,21.46
2022-08-11T05:35:07.391Z,21.88
2022-08-11T05:37:42.233Z,22.47
2022-08-11T05:40:30.613Z,23.22
2022-08-11T05:43:19.639Z,24.68
2022-08-11T05:46:15.604Z,26.28
2022-08-11T05:49:02.284Z,27.37
2022-08-11T05:51:55.514Z,28.29
2022-08-11T05:54:45.964Z,29.06
2022-08-11T05:57:45.516Z,29.08
2022-08-11T06:00:12.436Z,30.18
2022-08-11T06:02:44.354Z,30.54
2022-08-11T06:05:14.153Z,30.65
2022-08-11T06:07:48.402Z,30.54
2022-08-11T06:10:27.533Z,30.96
2022-08-11T06:12:56.742Z,30.98
2022-08-11T06:15:27.276Z,31.35
2022-08-11T06:17:56.732Z,30.96
2022-08-11T06:20:25.478Z,31.00
2022-08-11T06:22:59.816Z,30.94
2022-08-11T06:25:32.522Z,31.54
2022-08-11T06:28:01.437Z,32.19
2022-08-11T06:30:40.743Z,31.97
2022-08-11T06:33:11.908Z,32.45
2022-08-11T06:35:58.267Z,31.81
2022-08-11T06:38:42.420Z,32.52
2022-08-11T06:41:33.093Z,31.57
2022-08-11T06:44:17.489Z,32.62
2022-08-11T06:46:50.983Z,33.00
2022-08-11T06:49:38.510Z,33.31
2022-08-11T06:52:34.319Z,32.72
2022-08-11T06:55:05.966Z,32.16
2022-08-11T06:57:53.005Z,32.24
2022-08-11T07:00:29.811Z,31.41
2022-08-11T07:03:03.298Z,32.27
2022-08-11T07:05:43.869Z,32.30
2022-08-11T07:09:00.539Z,31.94
2022-08-11T07:12:18.058Z,32.39
2022-08-11T07:15:08.945Z,31.96
2022-08-11T07:17:42.613Z,32.49
2022-08-11T07:20:28.187Z,32.95
2022-08-11T07:23:15.781Z,31.52
2022-08-11T07:26:05.760Z,32.52
2022-08-11T07:28:53.472Z,32.10
2022-08-11T07:31:29.230Z,32.53
2022-08-11T07:34:10.247Z,30.75
2022-08-11T07:36:47.082Z,32.46
2022-08-11T07:39:20.970Z,32.63
2022-08-11T07:41:49.745Z,33.14
2022-08-11T07:44:18.627Z,32.75
2022-08-11T07:47:07.066Z,32.45
2022-08-11T07:49:54.744Z,32.75
2022-08-11T07:52:30.341Z,33.38
2022-08-11T07:55:00.601Z,32.64
2022-08-11T07:58:14.210Z,32.71
2022-08-11T08:00:55.150Z,31.41
2022-08-11T08:03:54.650Z,29.69
2022-08-11T08:06:41.674Z,30.24
2022-08-11T08:09:29.558Z,29.42
2022-08-11T08:12:15.555Z,29.28
2022-08-11T08:15:01.684Z,28.11
2022-08-11T08:18:09.506Z,28.73
2022-08-11T08:20:39.411Z,29.86
2022-08-11T08:23:08.661Z,31.32
2022-08-11T08:25:40.742Z,30.53
2022-08-11T08:28:13.915Z,31.46
2022-08-11T08:30:47.585Z,30.30
2022-08-11T08:33:20.265Z,30.65
2022-08-11T08:35:54.466Z,30.56
2022-08-11T08:38:24.651Z,31.47
2022-08-11T08:40:56.793Z,30.97
2022-08-11T08:43:25.519Z,29.28
2022-08-11T08:45:58.294Z,29.15
2022-08-11T08:48:27.902Z,29.78
2022-08-11T08:51:20.029Z,29.91
2022-08-11T08:53:53.732Z,28.95
2022-08-11T08:56:29.619Z,30.01
2022-08-11T08:59:00.679Z,30.53
2022-08-11T09:01:31.174Z,29.16
2022-08-11T09:04:04.695Z,30.23
2022-08-11T09:06:40.787Z,29.99
2022-08-11T09:09:09.276Z,28.89
2022-08-11T09:11:57.107Z,28.38
2022-08-11T09:14:48.639Z,28.57
2022-08-11T09:17:18.655Z,28.80
2022-08-11T09:19:47.528Z,28.95
2022-08-11T09:22:42.567Z,28.92
2022-08-11T09:25:28.439Z,28.36
2022-08-11T09:27:57.793Z,27.74
2022-08-11T09:30:27.765Z,28.38
2022-08-11T09:32:58.120Z,28.80
2022-08-11T09:35:28.424Z,28.86
2022-08-11T09:38:15.073Z,29.28
2022-08-11T09:40:45.987Z,29.85
2022-08-11T09:43:40.004Z,29.98
2022-08-11T09:46:09.656Z,29.99
2022-08-11T09:48:40.868Z,29.01
2022-08-11T09:51:10.949Z,27.83
2022-08-11T09:53:41.222Z,28.50
2022-08-11T09:56:33.503Z,28.84
2022-08-11T09:59:04.319Z,28.90
2022-08-11T10:01:38.057Z,28.84
2022-08-11T10:04:10.449Z,28.98
2022-08-11T10:06:57.607Z,30.12
2022-08-11T10:09:27.199Z,29.17
2022-08-11T10:12:02.860Z,29.60
2022-08-11T10:14:50.723Z,29.93
2022-08-11T10:17:22.870Z,30.33
2022-08-11T10:20:04.441Z,29.03
2022-08-11T10:22:52.414Z,29.23
2022-08-11T10:25:38.776Z,29.22
2022-08-11T10:28:30.404Z,29.51
2022-08-11T10:31:18.437Z,29.34
2022-08-11T10:34:03.748Z,28.98
2022-08-11T10:36:33.850Z,28.95
2022-08-11T10:39:03.267Z,29.47
2022-08-11T10:42:03.339Z,29.34
2022-08-11T10:44:40.013Z,29.13
2022-08-11T10:47:29.833Z,28.97
2022-08-11T10:50:12.279Z,29.39
2022-08-11T10:52:58.659Z,29.29
2022-08-11T10:55:45.110Z,29.61
2022-08-11T10:58:31.972Z,29.57
2022-08-11T11:01:00.837Z,29.85
2022-08-11T11:03:34.488Z,30.17
2022-08-11T11:06:12.544Z,30.23
2022-08-11T11:09:04.473Z,29.25
2022-08-11T11:11:54.984Z,29.38
2022-08-11T11:14:46.355Z,29.46
2022-08-11T11:17:45.034Z,29.43
2022-08-11T11:20:36.764Z,29.92
2022-08-11T11:23:07.572Z,29.41
2022-08-11T11:26:06.611Z,29.53
2022-08-11T11:28:51.385Z,29.07
2022-08-11T11:31:35.082Z,29.35
2022-08-11T11:34:16.003Z,29.26
2022-08-11T11:36:48.701Z,29.30
2022-08-11T11:39:19.935Z,29.58
2022-08-11T11:41:48.056Z,29.53
2022-08-11T11:44:16.897Z,29.83
2022-08-11T11:46:46.527Z,29.31
2022-08-11T11:49:17.376Z,29.37
2022-08-11T11:51:50.020Z,29.88
2022-08-11T11:54:22.246Z,29.45
2022-08-11T11:56:53.170Z,29.13
2022-08-11T11:59:39.978Z,29.52
2022-08-11T12:02:11.752Z,29.63
2022-08-11T12:04:43.923Z,29.53
2022-08-11T12:07:30.987Z,29.59
2022-08-11T12:09:59.976Z,30.12
2022-08-11T12:12:46.695Z,30.44
2022-08-11T12:15:14.738Z,30.52
2022-08-11T12:17:42.476Z,29.92
2022-08-11T12:20:31.894Z,29.52
2022-08-11T12:23:17.226Z,30.10
2022-08-11T12:26:25.339Z,29.92
2022-08-11T12:28:48.945Z,30.18
2022-08-11T12:31:16.848Z,30.06
2022-08-11T12:33:47.089Z,30.05
2022-08-11T12:36:16.485Z,29.74
2022-08-11T12:38:51.278Z,29.71
2022-08-11T12:41:38.124Z,30.13
2022-08-11T12:44:27.788Z,30.46
2022-08-11T12:46:57.526Z,30.39
2022-08-11T12:49:45.482Z,29.85
2022-08-11T12:52:22.316Z,30.30
2022-08-11T12:54:58.980Z,30.41
2022-08-11T12:57:51.058Z,30.62
2022-08-11T13:00:38.092Z,30.62
2022-08-11T13:03:26.076Z,30.95
2022-08-11T13:05:56.577Z,30.49
2022-08-11T13:08:25.857Z,30.42
2022-08-11T13:11:14.614Z,30.40
2022-08-11T13:13:53.995Z,30.31
2022-08-11T13:16:25.036Z,30.53
2022-08-11T13:18:53.687Z,30.18
2022-08-11T13:21:22.943Z,30.72
2022-08-11T13:24:01.065Z,30.51
2022-08-11T13:26:46.842Z,30.44
2022-08-11T13:29:21.648Z,30.51
2022-08-11T13:31:49.820Z,30.35
2022-08-11T13:34:20.011Z,30.87
2022-08-11T13:36:52.807Z,31.13
2022-08-11T13:39:23.952Z,30.90
2022-08-11T13:41:56.501Z,31.07
2022-08-11T13:44:27.060Z,31.23
2022-08-11T13:46:57.261Z,30.96
2022-08-11T13:49:26.085Z,31.24
2022-08-11T13:51:56.233Z,31.27
2022-08-11T13:54:26.406Z,31.17
2022-08-11T13:56:57.845Z,31.07
2022-08-11T13:59:30.080Z,31.35
2022-08-11T14:02:21.902Z,31.01
2022-08-11T14:04:55.068Z,31.18
2022-08-11T14:07:26.641Z,31.16
2022-08-11T14:09:58.578Z,31.06
2022-08-11T14:12:48.092Z,30.92
2022-08-11T14:15:20.834Z,30.67
2022-08-11T14:17:53.124Z,30.65
2022-08-11T14:20:38.062Z,30.67
2022-08-11T14:23:08.329Z,30.91
2022-08-11T14:26:00.301Z,30.99
2022-08-11T14:28:33.722Z,31.16
2022-08-11T14:31:05.261Z,31.28
2022-08-11T14:33:58.858Z,31.33
2022-08-11T14:36:24.717Z,31.30
2022-08-11T14:38:54.453Z,31.30
2022-08-11T14:42:07.582Z,31.19
2022-08-11T14:44:49.715Z,31.08
2022-08-11T14:47:24.008Z,31.04
2022-08-11T14:50:09.548Z,31.14
2022-08-11T14:52:43.999Z,31.27
2022-08-11T14:55:30.706Z,31.12
2022-08-11T14:57:59.256Z,31.21
2022-08-11T15:00:29.241Z,31.27
2022-08-11T15:03:12.612Z,31.33
2022-08-11T15:05:55.679Z,31.08
2022-08-11T15:08:42.577Z,31.00
2022-08-11T15:11:32.175Z,30.84
2022-08-11T15:14:01.268Z,30.70
2022-08-11T15:16:48.891Z,30.97
2022-08-11T15:19:19.542Z,30.97
2022-08-11T15:22:04.824Z,31.23
2022-08-11T15:24:33.693Z,31.03
2022-08-11T15:27:22.808Z,31.03
2022-08-11T15:30:10.529Z,30.97
2022-08-11T15:33:09.061Z,30.91
2022-08-11T15:35:56.162Z,30.86
2022-08-11T15:38:25.295Z,30.94
2022-08-11T15:41:14.672Z,31.08
2022-08-11T15:44:06.866Z,30.91
2022-08-11T15:46:40.541Z,31.12
2022-08-11T15:49:13.954Z,31.08
2022-08-11T15:52:00.409Z,30.96
2022-08-11T15:54:32.914Z,31.05
2022-08-11T15:57:02.555Z,31.00
2022-08-11T15:59:50.078Z,30.73
2022-08-11T16:02:51.807Z,30.49
2022-08-11T16:05:44.921Z,30.88
2022-08-11T16:08:10.312Z,31.02
2022-08-11T16:10:42.067Z,31.10
2022-08-11T16:13:33.591Z,31.13
2022-08-11T16:16:18.707Z,31.02
2022-08-11T16:18:54.509Z,30.97
2022-08-11T16:21:35.140Z,30.94
2022-08-11T16:24:07.663Z,30.96
2022-08-11T16:27:09.237Z,30.85
2022-08-11T16:29:28.055Z,30.69
2022-08-11T16:32:14.559Z,30.56
2022-08-11T16:35:02.583Z,30.68
2022-08-11T16:37:51.570Z,30.74
2022-08-11T16:40:20.829Z,30.77
2022-08-11T16:43:10.670Z,30.57
2022-08-11T16:45:58.378Z,30.68
2022-08-11T16:48:37.181Z,30.51
2022-08-11T16:51:07.736Z,30.53
2022-08-11T16:54:03.422Z,30.56
2022-08-11T16:56:30.893Z,30.45
2022-08-11T16:59:17.037Z,30.42
2022-08-11T17:01:53.406Z,30.52
2022-08-11T17:04:53.941Z,30.43
2022-08-11T17:07:43.182Z,30.40
2022-08-11T17:10:50.432Z,30.42
2022-08-11T17:13:32.638Z,30.34
2022-08-11T17:16:08.422Z,30.38
2022-08-11T17:18:44.091Z,30.40
2022-08-11T17:21:20.779Z,30.22
2022-08-11T17:23:51.757Z,30.31
2022-08-11T17:26:26.038Z,30.34
2022-08-11T17:28:58.691Z,30.39
2022-08-11T17:31:47.772Z,30.33
2022-08-11T17:34:33.926Z,30.32
2022-08-11T17:37:02.283Z,30.32
2022-08-11T17:39:32.666Z,30.27
2022-08-11T17:42:20.480Z,30.12
2022-08-11T17:45:07.499Z,30.09
2022-08-11T17:47:53.504Z,29.94
2022-08-11T17:50:22.018Z,29.93
2022-08-11T17:53:08.503Z,29.90
2022-08-11T17:55:56.064Z,29.85
2022-08-11T17:58:46.252Z,29.75
2022-08-11T18:01:15.594Z,29.76
2022-08-11T18:03:53.213Z,29.76
2022-08-11T18:06:33.579Z,29.74
2022-08-11T18:09:22.489Z,29.57
2022-08-11T18:12:11.656Z,29.51
2022-08-11T18:15:02.880Z,29.41
2022-08-11T18:17:48.763Z,29.32
2022-08-11T18:20:34.048Z,29.21
2022-08-11T18:23:40.708Z,29.18
2022-08-11T18:26:31.266Z,29.13
2022-08-11T18:29:17.664Z,29.05
2022-08-11T18:32:08.500Z,28.93
2022-08-11T18:34:59.097Z,28.89
2022-08-11T18:37:46.106Z,28.79
2022-08-11T18:40:36.188Z,28.63
2022-08-11T18:43:27.347Z,28.56
2022-08-11T18:46:18.481Z,28.42
2022-08-11T18:49:11.786Z,28.20
2022-08-11T18:52:03.924Z,28.09
2022-08-11T18:54:53.225Z,28.12
2022-08-11T18:57:49.528Z,28.05
2022-08-11T19:00:40.526Z,28.01
2022-08-11T19:03:27.792Z,27.80
2022-08-11T19:06:38.954Z,27.67
2022-08-11T19:09:25.151Z,27.59
2022-08-11T19:12:11.972Z,27.56
2022-08-11T19:15:00.019Z,27.44
2022-08-11T19:17:48.005Z,27.44
2022-08-11T19:20:37.990Z,27.49
2022-08-11T19:23:27.387Z,27.36
2022-08-11T19:26:13.337Z,27.30
2022-08-11T19:29:01.762Z,27.25
2022-08-11T19:31:48.210Z,27.15
2022-08-11T19:34:35.592Z,27.21
2022-08-11T19:37:24.969Z,27.21
2022-08-11T19:40:14.328Z,27.15
2022-08-11T19:43:01.772Z,27.02
2022-08-11T19:45:52.244Z,26.95
2022-08-11T19:48:39.765Z,26.87
2022-08-11T19:51:26.827Z,26.81
2022-08-11T19:54:12.866Z,26.71
2022-08-11T19:57:00.920Z,26.64
2022-08-11T19:59:46.825Z,26.54
2022-08-11T20:02:32.060Z,26.49
2022-08-11T20:05:17.583Z,26.57
2022-08-11T20:08:05.260Z,26.55
2022-08-11T20:10:51.916Z,26.51
2022-08-11T20:13:41.636Z,26.32
2022-08-11T20:16:31.063Z,26.26
2022-08-11T20:19:18.573Z,26.28
2022-08-11T20:22:08.205Z,26.22
2022-08-11T20:24:56.731Z,26.20
2022-08-11T20:27:43.566Z,26.16
2022-08-11T20:30:31.976Z,26.13
2022-08-11T20:33:17.989Z,26.06
2022-08-11T20:36:06.948Z,26.09
2022-08-11T20:38:53.649Z,26.01
2022-08-11T20:41:57.744Z,25.92
2022-08-11T20:44:45.973Z,25.94
2022-08-11T20:47:59.101Z,25.97
2022-08-11T20:50:40.408Z,25.84
2022-08-11T20:53:26.916Z,25.80
2022-08-11T20:56:14.024Z,25.78
2022-08-11T20:59:14.370Z,25.66
2022-08-11T21:02:05.272Z,25.66
2022-08-11T21:04:57.718Z,25.74
2022-08-11T21:07:55.323Z,25.55
2022-08-11T21:10:44.776Z,25.53
2022-08-11T21:13:34.325Z,25.44
2022-08-11T21:16:26.614Z,25.41
2022-08-11T21:19:19.155Z,25.29
2022-08-11T21:22:28.005Z,25.17
2022-08-11T21:25:16.404Z,25.09
2022-08-11T21:28:04.814Z,25.13
2022-08-11T21:30:57.518Z,25.10
2022-08-11T21:33:46.263Z,25.00
2022-08-11T21:36:33.567Z,24.95
2022-08-11T21:39:24.756Z,24.97
2022-08-11T21:42:12.446Z,24.90
2022-08-11T21:44:59.861Z,24.68
2022-08-11T21:47:45.818Z,24.65
2022-08-11T21:50:32.046Z,24.64
2022-08-11T21:53:18.215Z,24.53
2022-08-11T21:56:05.255Z,24.58
2022-08-11T21:58:51.630Z,24.50
2022-08-11T22:01:37.115Z,24.42
2022-08-11T22:04:24.410Z,24.35
2022-08-11T22:07:10.230Z,24.45
2022-08-11T22:09:55.890Z,24.47
2022-08-11T22:12:45.129Z,24.29
2022-08-11T22:15:31.390Z,24.37
2022-08-11T22:18:16.916Z,24.38
2022-08-11T22:21:03.269Z,24.34
2022-08-11T22:23:51.390Z,24.24
2022-08-11T22:26:39.594Z,24.18
2022-08-11T22:29:50.146Z,24.10
2022-08-11T22:32:36.640Z,24.22
2022-08-11T22:35:23.343Z,23.98
2022-08-11T22:38:09.509Z,24.00
2022-08-11T22:40:55.805Z,24.09
2022-08-11T22:43:41.167Z,23.99
2022-08-11T22:46:27.889Z,24.06
2022-08-11T22:49:14.889Z,24.00
2022-08-11T22:52:02.892Z,23.89
2022-08-11T22:54:49.691Z,23.91
2022-08-11T22:57:35.245Z,23.75
2022-08-11T23:00:20.958Z,23.74
2022-08-11T23:03:08.346Z,23.60
2022-08-11T23:05:59.087Z,23.52
2022-08-11T23:08:45.068Z,23.56
2022-08-11T23:12:06.206Z,23.55
2022-08-11T23:14:35.623Z,23.34
2022-08-11T23:17:21.199Z,23.20
2022-08-11T23:20:17.654Z,23.24
2022-08-11T23:23:14.473Z,23.28
2022-08-11T23:26:01.382Z,23.26
2022-08-11T23:28:50.496Z,23.30
2022-08-11T23:31:51.039Z,23.25
2022-08-11T23:35:04.814Z,23.31
2022-08-11T23:37:46.418Z,23.29
2022-08-11T23:40:31.480Z,23.34
2022-08-11T23:43:16.734Z,23.35
2022-08-11T23:46:02.228Z,23.36
2022-08-11T23:48:49.676Z,23.29
2022-08-11T23:51:40.360Z,23.31
2022-08-11T23:54:28.193Z,23.35
2022-08-11T23:57:13.346Z,23.31
2022-08-11T23:59:58.744Z,23.33
